sensor_id;sensor_type;location;lat;lon;timestamp;temperature;humidity
4207;DHT22;2117;47.972;7.830;2023-02-01T00:01:34;5.60;99.90
4207;DHT22;2117;47.972;7.830;2023-02-01T00:04:00;5.60;99.90
4207;DHT22;2117;47.972;7.830;2023-02-01T00:06:25;5.60;99.90
4207;DHT22;2117;47.972;7.830;2023-02-01T00:08:54;5.60;99.90
4207;DHT22;2117;47.972;7.830;2023-02-01T00:11:21;5.50;99.90
4207;DHT22;2117;47.972;7.830;2023-02-01T00:13:47;5.50;99.90
4207;DHT22;2117;47.972;7.830;2023-02-01T00:16:21;5.50;99.90
4207;DHT22;2117;47.972;7.830;2023-02-01T00:21:15;5.50;99.90
4207;DHT22;2117;47.972;7.830;2023-02-01T00:23:42;5.50;99.90
4207;DHT22;2117;47.972;7.830;2023-02-01T00:26:18;5.50;99.90
4207;DHT22;2117;47.972;7.830;2023-02-01T00:28:44;5.50;99.90
4207;DHT22;2117;47.972;7.830;2023-02-01T00:31:09;5.50;99.90
4207;DHT22;2117;47.972;7.830;2023-02-01T00:33:35;5.50;99.90
4207;DHT22;2117;47.972;7.830;2023-02-01T00:36:03;5.40;99.90
4207;DHT22;2117;47.972;7.830;2023-02-01T00:38:30;5.40;99.90
4207;DHT22;2117;47.972;7.830;2023-02-01T00:41:04;5.40;99.90
4207;DHT22;2117;47.972;7.830;2023-02-01T00:43:31;5.40;99.90
4207;DHT22;2117;47.972;7.830;2023-02-01T00:45:57;5.40;99.90
4207;DHT22;2117;47.972;7.830;2023-02-01T00:48:22;5.40;99.90
4207;DHT22;2117;47.972;7.830;2023-02-01T00:50:48;5.40;99.90
4207;DHT22;2117;47.972;7.830;2023-02-01T00:53:13;5.40;99.90
4207;DHT22;2117;47.972;7.830;2023-02-01T00:55:39;5.40;99.90
4207;DHT22;2117;47.972;7.830;2023-02-01T00:58:04;5.30;99.90
4207;DHT22;2117;47.972;7.830;2023-02-01T01:00:32;5.30;99.90
4207;DHT22;2117;47.972;7.830;2023-02-01T01:02:58;5.30;99.90
4207;DHT22;2117;47.972;7.830;2023-02-01T01:05:23;5.30;99.90
4207;DHT22;2117;47.972;7.830;2023-02-01T01:07:49;5.30;99.90
4207;DHT22;2117;47.972;7.830;2023-02-01T01:10:15;5.30;99.90
4207;DHT22;2117;47.972;7.830;2023-02-01T01:12:41;5.30;99.90
4207;DHT22;2117;47.972;7.830;2023-02-01T01:15:07;5.30;99.90
4207;DHT22;2117;47.972;7.830;2023-02-01T01:17:33;5.30;99.90
4207;DHT22;2117;47.972;7.830;2023-02-01T01:19:58;5.30;99.90
4207;DHT22;2117;47.972;7.830;2023-02-01T01:22:24;5.30;99.90
4207;DHT22;2117;47.972;7.830;2023-02-01T01:24:49;5.30;99.90
4207;DHT22;2117;47.972;7.830;2023-02-01T01:27:15;5.20;99.90
4207;DHT22;2117;47.972;7.830;2023-02-01T01:29:40;5.20;99.90
4207;DHT22;2117;47.972;7.830;2023-02-01T01:32:06;5.20;99.90
4207;DHT22;2117;47.972;7.830;2023-02-01T01:34:32;5.20;99.90
4207;DHT22;2117;47.972;7.830;2023-02-01T01:36:57;5.20;99.90
4207;DHT22;2117;47.972;7.830;2023-02-01T01:39:23;5.20;99.90
4207;DHT22;2117;47.972;7.830;2023-02-01T01:41:48;5.20;99.90
4207;DHT22;2117;47.972;7.830;2023-02-01T01:44:56;5.10;99.90
4207;DHT22;2117;47.972;7.830;2023-02-01T01:47:22;5.20;99.90
4207;DHT22;2117;47.972;7.830;2023-02-01T01:49:49;5.10;99.90
4207;DHT22;2117;47.972;7.830;2023-02-01T01:52:15;5.10;99.90
4207;DHT22;2117;47.972;7.830;2023-02-01T01:54:45;5.20;99.90
4207;DHT22;2117;47.972;7.830;2023-02-01T01:57:16;5.20;99.90
4207;DHT22;2117;47.972;7.830;2023-02-01T01:59:46;5.10;99.90
4207;DHT22;2117;47.972;7.830;2023-02-01T02:02:12;5.10;99.90
4207;DHT22;2117;47.972;7.830;2023-02-01T02:04:38;5.10;99.90
4207;DHT22;2117;47.972;7.830;2023-02-01T02:07:09;5.10;99.90
4207;DHT22;2117;47.972;7.830;2023-02-01T02:09:37;5.10;99.90
4207;DHT22;2117;47.972;7.830;2023-02-01T02:12:03;5.10;99.90
4207;DHT22;2117;47.972;7.830;2023-02-01T02:14:29;5.20;99.90
4207;DHT22;2117;47.972;7.830;2023-02-01T02:17:04;5.20;99.90
4207;DHT22;2117;47.972;7.830;2023-02-01T02:19:54;5.20;99.90
4207;DHT22;2117;47.972;7.830;2023-02-01T02:34:11;5.20;99.90
4207;DHT22;2117;47.972;7.830;2023-02-01T02:36:59;5.10;99.90
4207;DHT22;2117;47.972;7.830;2023-02-01T02:42:26;5.10;99.90
4207;DHT22;2117;47.972;7.830;2023-02-01T02:45:36;5.10;99.90
4207;DHT22;2117;47.972;7.830;2023-02-01T02:51:09;5.10;99.90
4207;DHT22;2117;47.972;7.830;2023-02-01T02:56:41;5.10;99.90
4207;DHT22;2117;47.972;7.830;2023-02-01T02:59:27;5.10;99.90
4207;DHT22;2117;47.972;7.830;2023-02-01T03:02:12;5.10;99.90
4207;DHT22;2117;47.972;7.830;2023-02-01T03:04:58;5.10;99.90
4207;DHT22;2117;47.972;7.830;2023-02-01T03:10:35;5.10;99.90
4207;DHT22;2117;47.972;7.830;2023-02-01T03:13:13;5.10;99.90
4207;DHT22;2117;47.972;7.830;2023-02-01T03:15:40;5.10;99.90
4207;DHT22;2117;47.972;7.830;2023-02-01T03:18:19;5.10;99.90
4207;DHT22;2117;47.972;7.830;2023-02-01T03:20:51;5.10;99.90
4207;DHT22;2117;47.972;7.830;2023-02-01T03:23:21;5.10;99.90
4207;DHT22;2117;47.972;7.830;2023-02-01T03:25:48;5.10;99.90
4207;DHT22;2117;47.972;7.830;2023-02-01T03:28:17;5.10;99.90
4207;DHT22;2117;47.972;7.830;2023-02-01T03:30:46;5.10;99.90
4207;DHT22;2117;47.972;7.830;2023-02-01T03:33:19;5.10;99.90
4207;DHT22;2117;47.972;7.830;2023-02-01T03:38:21;5.10;99.90
4207;DHT22;2117;47.972;7.830;2023-02-01T03:41:11;5.00;99.90
4207;DHT22;2117;47.972;7.830;2023-02-01T03:44:33;5.00;99.90
4207;DHT22;2117;47.972;7.830;2023-02-01T03:46:37;5.00;99.90
4207;DHT22;2117;47.972;7.830;2023-02-01T03:49:06;4.90;99.90
4207;DHT22;2117;47.972;7.830;2023-02-01T03:51:36;4.90;99.90
4207;DHT22;2117;47.972;7.830;2023-02-01T03:54:05;4.90;99.90
4207;DHT22;2117;47.972;7.830;2023-02-01T03:56:33;4.80;99.90
4207;DHT22;2117;47.972;7.830;2023-02-01T03:59:01;4.80;99.90
4207;DHT22;2117;47.972;7.830;2023-02-01T04:01:28;4.80;99.90
4207;DHT22;2117;47.972;7.830;2023-02-01T04:03:55;4.70;99.90
4207;DHT22;2117;47.972;7.830;2023-02-01T04:06:21;4.70;99.90
4207;DHT22;2117;47.972;7.830;2023-02-01T04:08:46;4.70;99.90
4207;DHT22;2117;47.972;7.830;2023-02-01T04:11:12;4.70;99.90
4207;DHT22;2117;47.972;7.830;2023-02-01T04:13:38;4.70;99.90
4207;DHT22;2117;47.972;7.830;2023-02-01T04:16:03;4.70;99.90
4207;DHT22;2117;47.972;7.830;2023-02-01T04:18:29;4.70;99.90
4207;DHT22;2117;47.972;7.830;2023-02-01T04:20:54;4.60;99.90
4207;DHT22;2117;47.972;7.830;2023-02-01T04:23:20;4.60;99.90
4207;DHT22;2117;47.972;7.830;2023-02-01T04:25:46;4.60;99.90
4207;DHT22;2117;47.972;7.830;2023-02-01T04:28:11;4.60;99.90
4207;DHT22;2117;47.972;7.830;2023-02-01T04:30:37;4.50;99.90
4207;DHT22;2117;47.972;7.830;2023-02-01T04:33:02;4.50;99.90
4207;DHT22;2117;47.972;7.830;2023-02-01T04:35:31;4.50;99.90
4207;DHT22;2117;47.972;7.830;2023-02-01T04:37:57;4.50;99.90
4207;DHT22;2117;47.972;7.830;2023-02-01T04:40:22;4.50;99.90
4207;DHT22;2117;47.972;7.830;2023-02-01T04:42:48;4.40;99.90
4207;DHT22;2117;47.972;7.830;2023-02-01T04:45:13;4.40;99.90
4207;DHT22;2117;47.972;7.830;2023-02-01T04:47:39;4.30;99.90
4207;DHT22;2117;47.972;7.830;2023-02-01T04:50:05;4.30;99.90
4207;DHT22;2117;47.972;7.830;2023-02-01T04:52:31;4.30;99.90
4207;DHT22;2117;47.972;7.830;2023-02-01T04:54:57;4.30;99.90
4207;DHT22;2117;47.972;7.830;2023-02-01T04:57:24;4.30;99.90
4207;DHT22;2117;47.972;7.830;2023-02-01T04:59:50;4.30;99.90
4207;DHT22;2117;47.972;7.830;2023-02-01T05:02:16;4.30;99.90
4207;DHT22;2117;47.972;7.830;2023-02-01T05:04:41;4.30;99.90
4207;DHT22;2117;47.972;7.830;2023-02-01T05:07:07;4.30;99.90
4207;DHT22;2117;47.972;7.830;2023-02-01T05:09:32;4.30;99.90
4207;DHT22;2117;47.972;7.830;2023-02-01T05:11:58;4.30;99.90
4207;DHT22;2117;47.972;7.830;2023-02-01T05:14:42;4.30;99.90
4207;DHT22;2117;47.972;7.830;2023-02-01T05:17:07;4.40;99.90
4207;DHT22;2117;47.972;7.830;2023-02-01T05:19:33;4.40;99.90
4207;DHT22;2117;47.972;7.830;2023-02-01T05:21:58;4.40;99.90
4207;DHT22;2117;47.972;7.830;2023-02-01T05:24:24;4.40;99.90
4207;DHT22;2117;47.972;7.830;2023-02-01T05:26:50;4.40;99.90
4207;DHT22;2117;47.972;7.830;2023-02-01T05:29:16;4.40;99.90
4207;DHT22;2117;47.972;7.830;2023-02-01T05:31:45;4.40;99.90
4207;DHT22;2117;47.972;7.830;2023-02-01T05:34:10;4.40;99.90
4207;DHT22;2117;47.972;7.830;2023-02-01T05:36:37;4.40;99.90
4207;DHT22;2117;47.972;7.830;2023-02-01T05:39:03;4.30;99.90
4207;DHT22;2117;47.972;7.830;2023-02-01T05:41:28;4.30;99.90
4207;DHT22;2117;47.972;7.830;2023-02-01T05:43:54;4.30;99.90
4207;DHT22;2117;47.972;7.830;2023-02-01T05:46:20;4.30;99.90
4207;DHT22;2117;47.972;7.830;2023-02-01T05:48:45;4.30;99.90
4207;DHT22;2117;47.972;7.830;2023-02-01T05:51:11;4.30;99.90
4207;DHT22;2117;47.972;7.830;2023-02-01T05:53:36;4.30;99.90
4207;DHT22;2117;47.972;7.830;2023-02-01T05:56:02;4.20;99.90
4207;DHT22;2117;47.972;7.830;2023-02-01T05:58:29;4.30;99.90
4207;DHT22;2117;47.972;7.830;2023-02-01T06:00:55;4.20;99.90
4207;DHT22;2117;47.972;7.830;2023-02-01T06:03:20;4.30;99.90
4207;DHT22;2117;47.972;7.830;2023-02-01T06:05:47;4.30;99.90
4207;DHT22;2117;47.972;7.830;2023-02-01T06:08:13;4.30;99.90
4207;DHT22;2117;47.972;7.830;2023-02-01T06:10:39;4.30;99.90
4207;DHT22;2117;47.972;7.830;2023-02-01T06:13:05;4.40;99.90
4207;DHT22;2117;47.972;7.830;2023-02-01T06:15:31;4.40;99.90
4207;DHT22;2117;47.972;7.830;2023-02-01T06:17:57;4.30;99.90
4207;DHT22;2117;47.972;7.830;2023-02-01T06:20:23;4.30;99.90
4207;DHT22;2117;47.972;7.830;2023-02-01T06:22:49;4.30;99.90
4207;DHT22;2117;47.972;7.830;2023-02-01T06:25:15;4.30;99.90
4207;DHT22;2117;47.972;7.830;2023-02-01T06:27:42;4.30;99.90
4207;DHT22;2117;47.972;7.830;2023-02-01T06:30:08;4.30;99.90
4207;DHT22;2117;47.972;7.830;2023-02-01T06:32:33;4.30;99.90
4207;DHT22;2117;47.972;7.830;2023-02-01T06:34:59;4.30;99.90
4207;DHT22;2117;47.972;7.830;2023-02-01T06:37:26;4.30;99.90
4207;DHT22;2117;47.972;7.830;2023-02-01T06:39:52;4.20;99.90
4207;DHT22;2117;47.972;7.830;2023-02-01T06:42:18;4.20;99.90
4207;DHT22;2117;47.972;7.830;2023-02-01T06:44:44;4.30;99.90
4207;DHT22;2117;47.972;7.830;2023-02-01T06:47:09;4.30;99.90
4207;DHT22;2117;47.972;7.830;2023-02-01T06:49:35;4.30;99.90
4207;DHT22;2117;47.972;7.830;2023-02-01T06:52:00;4.30;99.90
4207;DHT22;2117;47.972;7.830;2023-02-01T06:54:27;4.30;99.90
4207;DHT22;2117;47.972;7.830;2023-02-01T06:56:52;4.30;99.90
4207;DHT22;2117;47.972;7.830;2023-02-01T06:59:18;4.30;99.90
4207;DHT22;2117;47.972;7.830;2023-02-01T07:01:44;4.30;99.90
4207;DHT22;2117;47.972;7.830;2023-02-01T07:04:12;4.30;99.90
4207;DHT22;2117;47.972;7.830;2023-02-01T07:06:38;4.40;99.90
4207;DHT22;2117;47.972;7.830;2023-02-01T07:09:04;4.30;99.90
4207;DHT22;2117;47.972;7.830;2023-02-01T07:11:30;4.40;99.90
4207;DHT22;2117;47.972;7.830;2023-02-01T07:13:56;4.40;99.90
4207;DHT22;2117;47.972;7.830;2023-02-01T07:16:22;4.50;99.90
4207;DHT22;2117;47.972;7.830;2023-02-01T07:18:49;4.50;99.90
4207;DHT22;2117;47.972;7.830;2023-02-01T07:21:15;4.60;99.90
4207;DHT22;2117;47.972;7.830;2023-02-01T07:23:41;4.60;99.90
4207;DHT22;2117;47.972;7.830;2023-02-01T07:26:09;4.50;99.90
4207;DHT22;2117;47.972;7.830;2023-02-01T07:28:35;4.60;99.90
4207;DHT22;2117;47.972;7.830;2023-02-01T07:31:06;4.60;99.90
4207;DHT22;2117;47.972;7.830;2023-02-01T07:33:32;4.60;99.90
4207;DHT22;2117;47.972;7.830;2023-02-01T07:36:01;4.70;99.90
4207;DHT22;2117;47.972;7.830;2023-02-01T07:38:27;4.70;99.90
4207;DHT22;2117;47.972;7.830;2023-02-01T07:40:57;4.70;99.90
4207;DHT22;2117;47.972;7.830;2023-02-01T07:43:23;4.60;99.90
4207;DHT22;2117;47.972;7.830;2023-02-01T07:45:52;4.60;99.90
4207;DHT22;2117;47.972;7.830;2023-02-01T07:48:19;4.70;99.90
4207;DHT22;2117;47.972;7.830;2023-02-01T07:50:44;4.70;99.90
4207;DHT22;2117;47.972;7.830;2023-02-01T07:53:10;4.70;99.90
4207;DHT22;2117;47.972;7.830;2023-02-01T07:55:39;4.70;99.90
4207;DHT22;2117;47.972;7.830;2023-02-01T07:58:05;4.70;99.90
4207;DHT22;2117;47.972;7.830;2023-02-01T08:00:31;4.70;99.90
4207;DHT22;2117;47.972;7.830;2023-02-01T08:03:15;4.70;99.90
4207;DHT22;2117;47.972;7.830;2023-02-01T08:05:40;4.70;99.90
4207;DHT22;2117;47.972;7.830;2023-02-01T08:08:06;4.70;99.90
4207;DHT22;2117;47.972;7.830;2023-02-01T08:10:32;4.70;99.90
4207;DHT22;2117;47.972;7.830;2023-02-01T08:12:59;4.70;99.90
4207;DHT22;2117;47.972;7.830;2023-02-01T08:15:26;4.80;99.90
4207;DHT22;2117;47.972;7.830;2023-02-01T08:17:52;4.90;99.90
4207;DHT22;2117;47.972;7.830;2023-02-01T08:20:18;4.90;99.90
4207;DHT22;2117;47.972;7.830;2023-02-01T08:22:44;4.90;99.90
4207;DHT22;2117;47.972;7.830;2023-02-01T08:25:10;4.90;99.90
4207;DHT22;2117;47.972;7.830;2023-02-01T08:27:36;5.00;99.90
4207;DHT22;2117;47.972;7.830;2023-02-01T08:30:03;5.10;99.90
4207;DHT22;2117;47.972;7.830;2023-02-01T08:32:30;5.10;99.90
4207;DHT22;2117;47.972;7.830;2023-02-01T08:34:55;5.10;99.90
4207;DHT22;2117;47.972;7.830;2023-02-01T08:37:21;5.10;99.90
4207;DHT22;2117;47.972;7.830;2023-02-01T08:39:47;5.10;99.90
4207;DHT22;2117;47.972;7.830;2023-02-01T08:42:15;5.10;99.90
4207;DHT22;2117;47.972;7.830;2023-02-01T08:44:59;5.20;99.90
4207;DHT22;2117;47.972;7.830;2023-02-01T08:47:24;5.10;99.90
4207;DHT22;2117;47.972;7.830;2023-02-01T08:49:50;5.10;99.90
4207;DHT22;2117;47.972;7.830;2023-02-01T08:52:16;5.10;99.90
4207;DHT22;2117;47.972;7.830;2023-02-01T08:54:42;5.10;99.90
4207;DHT22;2117;47.972;7.830;2023-02-01T08:57:08;5.10;99.90
4207;DHT22;2117;47.972;7.830;2023-02-01T08:59:34;5.10;99.90
4207;DHT22;2117;47.972;7.830;2023-02-01T09:02:00;5.10;99.90
4207;DHT22;2117;47.972;7.830;2023-02-01T09:04:26;5.10;99.90
4207;DHT22;2117;47.972;7.830;2023-02-01T09:06:51;5.10;99.90
4207;DHT22;2117;47.972;7.830;2023-02-01T09:09:17;5.10;99.90
4207;DHT22;2117;47.972;7.830;2023-02-01T09:11:43;5.10;99.90
4207;DHT22;2117;47.972;7.830;2023-02-01T09:14:08;5.00;99.90
4207;DHT22;2117;47.972;7.830;2023-02-01T09:16:34;5.00;99.90
4207;DHT22;2117;47.972;7.830;2023-02-01T09:18:59;5.10;99.90
4207;DHT22;2117;47.972;7.830;2023-02-01T09:21:25;5.10;99.90
4207;DHT22;2117;47.972;7.830;2023-02-01T09:23:51;5.10;99.90
4207;DHT22;2117;47.972;7.830;2023-02-01T09:26:17;5.10;99.90
4207;DHT22;2117;47.972;7.830;2023-02-01T09:28:42;5.20;99.90
4207;DHT22;2117;47.972;7.830;2023-02-01T09:31:08;5.20;99.90
4207;DHT22;2117;47.972;7.830;2023-02-01T09:33:33;5.30;99.90
4207;DHT22;2117;47.972;7.830;2023-02-01T09:36:02;5.30;99.90
4207;DHT22;2117;47.972;7.830;2023-02-01T09:38:28;5.30;99.90
4207;DHT22;2117;47.972;7.830;2023-02-01T09:40:55;5.40;99.90
4207;DHT22;2117;47.972;7.830;2023-02-01T09:43:37;5.40;99.90
4207;DHT22;2117;47.972;7.830;2023-02-01T09:48:39;5.50;99.90
4207;DHT22;2117;47.972;7.830;2023-02-01T09:51:16;5.50;99.90
4207;DHT22;2117;47.972;7.830;2023-02-01T09:53:48;5.60;99.90
4207;DHT22;2117;47.972;7.830;2023-02-01T09:56:25;5.60;99.90
4207;DHT22;2117;47.972;7.830;2023-02-01T10:01:38;5.80;99.90
4207;DHT22;2117;47.972;7.830;2023-02-01T10:04:09;6.00;99.90
4207;DHT22;2117;47.972;7.830;2023-02-01T10:10:01;6.00;99.90
4207;DHT22;2117;47.972;7.830;2023-02-01T10:15:19;6.30;99.90
4207;DHT22;2117;47.972;7.830;2023-02-01T10:20:52;6.10;99.90
4207;DHT22;2117;47.972;7.830;2023-02-01T10:26:33;6.10;99.90
4207;DHT22;2117;47.972;7.830;2023-02-01T10:29:04;6.10;99.90
4207;DHT22;2117;47.972;7.830;2023-02-01T10:31:36;6.20;99.90
4207;DHT22;2117;47.972;7.830;2023-02-01T10:34:30;6.10;99.90
4207;DHT22;2117;47.972;7.830;2023-02-01T10:36:57;6.10;99.90
4207;DHT22;2117;47.972;7.830;2023-02-01T10:39:25;6.00;99.90
4207;DHT22;2117;47.972;7.830;2023-02-01T10:41:51;6.00;99.90
4207;DHT22;2117;47.972;7.830;2023-02-01T10:44:21;6.00;99.90
4207;DHT22;2117;47.972;7.830;2023-02-01T10:46:48;6.10;99.90
4207;DHT22;2117;47.972;7.830;2023-02-01T10:49:18;6.20;99.90
4207;DHT22;2117;47.972;7.830;2023-02-01T10:51:49;6.20;99.90
4207;DHT22;2117;47.972;7.830;2023-02-01T10:54:22;6.30;99.90
4207;DHT22;2117;47.972;7.830;2023-02-01T10:56:56;6.30;99.90
4207;DHT22;2117;47.972;7.830;2023-02-01T10:59:24;6.30;99.90
4207;DHT22;2117;47.972;7.830;2023-02-01T11:01:58;6.30;99.90
4207;DHT22;2117;47.972;7.830;2023-02-01T11:04:26;6.30;99.90
4207;DHT22;2117;47.972;7.830;2023-02-01T11:09:38;6.30;99.90
4207;DHT22;2117;47.972;7.830;2023-02-01T11:12:07;6.30;99.90
4207;DHT22;2117;47.972;7.830;2023-02-01T11:14:47;6.40;99.90
4207;DHT22;2117;47.972;7.830;2023-02-01T11:17:30;6.40;99.90
4207;DHT22;2117;47.972;7.830;2023-02-01T11:20:04;6.50;99.90
4207;DHT22;2117;47.972;7.830;2023-02-01T11:22:31;6.50;99.90
4207;DHT22;2117;47.972;7.830;2023-02-01T11:24:57;6.60;99.90
4207;DHT22;2117;47.972;7.830;2023-02-01T11:27:25;6.70;99.90
4207;DHT22;2117;47.972;7.830;2023-02-01T11:29:53;6.70;99.90
4207;DHT22;2117;47.972;7.830;2023-02-01T11:32:21;6.80;99.90
4207;DHT22;2117;47.972;7.830;2023-02-01T11:34:57;6.80;99.90
4207;DHT22;2117;47.972;7.830;2023-02-01T11:39:57;7.00;99.90
4207;DHT22;2117;47.972;7.830;2023-02-01T11:42:23;7.00;99.90
4207;DHT22;2117;47.972;7.830;2023-02-01T11:44:49;7.00;99.90
4207;DHT22;2117;47.972;7.830;2023-02-01T11:49:43;7.10;99.90
4207;DHT22;2117;47.972;7.830;2023-02-01T12:00:15;7.30;99.90
4207;DHT22;2117;47.972;7.830;2023-02-01T12:08:44;7.20;99.90
4207;DHT22;2117;47.972;7.830;2023-02-01T12:14:28;7.20;99.90
4207;DHT22;2117;47.972;7.830;2023-02-01T12:20:15;7.30;99.90
4207;DHT22;2117;47.972;7.830;2023-02-01T12:31:20;7.20;99.90
4207;DHT22;2117;47.972;7.830;2023-02-01T12:41:58;7.00;99.90
4207;DHT22;2117;47.972;7.830;2023-02-01T12:47:14;7.10;99.90
4207;DHT22;2117;47.972;7.830;2023-02-01T12:49:53;7.10;99.90
4207;DHT22;2117;47.972;7.830;2023-02-01T12:52:30;7.10;99.90
4207;DHT22;2117;47.972;7.830;2023-02-01T12:55:23;7.00;99.90
4207;DHT22;2117;47.972;7.830;2023-02-01T12:57:56;6.90;99.90
4207;DHT22;2117;47.972;7.830;2023-02-01T13:00:48;6.80;99.90
4207;DHT22;2117;47.972;7.830;2023-02-01T13:03:29;6.80;99.90
4207;DHT22;2117;47.972;7.830;2023-02-01T13:06:06;6.80;99.90
4207;DHT22;2117;47.972;7.830;2023-02-01T13:09:32;6.90;99.90
4207;DHT22;2117;47.972;7.830;2023-02-01T13:11:38;6.90;99.90
4207;DHT22;2117;47.972;7.830;2023-02-01T13:16:59;6.80;99.90
4207;DHT22;2117;47.972;7.830;2023-02-01T13:21:57;6.90;99.90
4207;DHT22;2117;47.972;7.830;2023-02-01T13:24:44;6.90;99.90
4207;DHT22;2117;47.972;7.830;2023-02-01T13:27:15;6.90;99.90
4207;DHT22;2117;47.972;7.830;2023-02-01T13:29:55;6.90;99.90
4207;DHT22;2117;47.972;7.830;2023-02-01T13:41:19;7.10;99.90
4207;DHT22;2117;47.972;7.830;2023-02-01T13:43:51;7.50;99.90
4207;DHT22;2117;47.972;7.830;2023-02-01T13:46:18;7.30;99.90
4207;DHT22;2117;47.972;7.830;2023-02-01T13:48:50;7.30;99.90
4207;DHT22;2117;47.972;7.830;2023-02-01T13:54:36;7.10;99.90
4207;DHT22;2117;47.972;7.830;2023-02-01T13:57:03;7.00;99.90
4207;DHT22;2117;47.972;7.830;2023-02-01T13:59:48;6.90;99.90
4207;DHT22;2117;47.972;7.830;2023-02-01T14:05:02;7.00;99.90
4207;DHT22;2117;47.972;7.830;2023-02-01T14:07:28;7.00;99.90
4207;DHT22;2117;47.972;7.830;2023-02-01T14:09:54;6.90;99.90
4207;DHT22;2117;47.972;7.830;2023-02-01T14:15:22;6.90;99.90
4207;DHT22;2117;47.972;7.830;2023-02-01T14:17:48;6.80;99.90
4207;DHT22;2117;47.972;7.830;2023-02-01T14:23:12;6.70;99.90
4207;DHT22;2117;47.972;7.830;2023-02-01T14:25:39;6.70;99.90
4207;DHT22;2117;47.972;7.830;2023-02-01T14:28:51;6.60;99.90
4207;DHT22;2117;47.972;7.830;2023-02-01T14:31:32;6.60;99.90
4207;DHT22;2117;47.972;7.830;2023-02-01T14:34:02;6.60;99.90
4207;DHT22;2117;47.972;7.830;2023-02-01T14:36:52;6.60;99.90
4207;DHT22;2117;47.972;7.830;2023-02-01T14:39:25;6.60;99.90
4207;DHT22;2117;47.972;7.830;2023-02-01T14:41:55;6.60;99.90
4207;DHT22;2117;47.972;7.830;2023-02-01T14:44:26;7.30;99.90
4207;DHT22;2117;47.972;7.830;2023-02-01T14:50:04;8.30;99.90
4207;DHT22;2117;47.972;7.830;2023-02-01T14:52:41;8.60;99.90
4207;DHT22;2117;47.972;7.830;2023-02-01T14:55:24;8.80;99.90
4207;DHT22;2117;47.972;7.830;2023-02-01T14:57:54;8.20;99.90
4207;DHT22;2117;47.972;7.830;2023-02-01T15:00:29;7.70;99.90
4207;DHT22;2117;47.972;7.830;2023-02-01T15:05:45;7.20;99.90
4207;DHT22;2117;47.972;7.830;2023-02-01T15:08:28;7.00;99.90
4207;DHT22;2117;47.972;7.830;2023-02-01T15:10:56;7.00;99.90
4207;DHT22;2117;47.972;7.830;2023-02-01T15:13:25;6.80;99.90
4207;DHT22;2117;47.972;7.830;2023-02-01T15:16:11;6.70;99.90
4207;DHT22;2117;47.972;7.830;2023-02-01T15:18:36;6.80;99.90
4207;DHT22;2117;47.972;7.830;2023-02-01T15:21:04;6.70;99.90
4207;DHT22;2117;47.972;7.830;2023-02-01T15:23:31;6.60;99.90
4207;DHT22;2117;47.972;7.830;2023-02-01T15:25:56;6.60;99.90
4207;DHT22;2117;47.972;7.830;2023-02-01T15:28:23;6.60;99.90
4207;DHT22;2117;47.972;7.830;2023-02-01T15:30:54;6.50;99.90
4207;DHT22;2117;47.972;7.830;2023-02-01T15:33:21;6.50;99.90
4207;DHT22;2117;47.972;7.830;2023-02-01T15:35:49;6.40;99.90
4207;DHT22;2117;47.972;7.830;2023-02-01T15:38:37;6.50;99.90
4207;DHT22;2117;47.972;7.830;2023-02-01T15:41:09;6.50;99.90
4207;DHT22;2117;47.972;7.830;2023-02-01T15:46:36;6.50;99.90
4207;DHT22;2117;47.972;7.830;2023-02-01T15:49:02;6.50;99.90
4207;DHT22;2117;47.972;7.830;2023-02-01T15:51:30;6.50;99.90
4207;DHT22;2117;47.972;7.830;2023-02-01T15:54:02;6.40;99.90
4207;DHT22;2117;47.972;7.830;2023-02-01T15:56:37;6.40;99.90
4207;DHT22;2117;47.972;7.830;2023-02-01T15:59:17;6.30;99.90
4207;DHT22;2117;47.972;7.830;2023-02-01T16:01:44;6.40;99.90
4207;DHT22;2117;47.972;7.830;2023-02-01T16:09:14;6.30;99.90
4207;DHT22;2117;47.972;7.830;2023-02-01T16:12:03;6.40;99.90
4207;DHT22;2117;47.972;7.830;2023-02-01T16:14:28;6.40;99.90
4207;DHT22;2117;47.972;7.830;2023-02-01T16:16:56;6.40;99.90
4207;DHT22;2117;47.972;7.830;2023-02-01T16:19:23;6.40;99.90
4207;DHT22;2117;47.972;7.830;2023-02-01T16:21:53;6.40;99.90
4207;DHT22;2117;47.972;7.830;2023-02-01T16:24:19;6.40;99.90
4207;DHT22;2117;47.972;7.830;2023-02-01T16:26:47;6.40;99.90
4207;DHT22;2117;47.972;7.830;2023-02-01T16:29:13;6.40;99.90
4207;DHT22;2117;47.972;7.830;2023-02-01T16:31:40;6.40;99.90
4207;DHT22;2117;47.972;7.830;2023-02-01T16:34:10;6.40;99.90
4207;DHT22;2117;47.972;7.830;2023-02-01T16:36:36;6.30;99.90
4207;DHT22;2117;47.972;7.830;2023-02-01T16:39:01;6.30;99.90
4207;DHT22;2117;47.972;7.830;2023-02-01T16:41:28;6.20;99.90
4207;DHT22;2117;47.972;7.830;2023-02-01T16:43:54;6.20;99.90
4207;DHT22;2117;47.972;7.830;2023-02-01T16:46:23;6.20;99.90
4207;DHT22;2117;47.972;7.830;2023-02-01T16:48:54;6.10;99.90
4207;DHT22;2117;47.972;7.830;2023-02-01T16:51:20;6.10;99.90
4207;DHT22;2117;47.972;7.830;2023-02-01T16:53:46;6.10;99.90
4207;DHT22;2117;47.972;7.830;2023-02-01T16:56:22;6.10;99.90
4207;DHT22;2117;47.972;7.830;2023-02-01T16:58:48;6.10;99.90
4207;DHT22;2117;47.972;7.830;2023-02-01T17:01:16;6.10;99.90
4207;DHT22;2117;47.972;7.830;2023-02-01T17:03:43;6.10;99.90
4207;DHT22;2117;47.972;7.830;2023-02-01T17:06:12;6.10;99.90
4207;DHT22;2117;47.972;7.830;2023-02-01T17:08:45;6.10;99.90
4207;DHT22;2117;47.972;7.830;2023-02-01T17:11:12;6.10;99.90
4207;DHT22;2117;47.972;7.830;2023-02-01T17:13:39;6.20;99.90
4207;DHT22;2117;47.972;7.830;2023-02-01T17:18:44;6.10;99.90
4207;DHT22;2117;47.972;7.830;2023-02-01T17:21:11;6.10;99.90
4207;DHT22;2117;47.972;7.830;2023-02-01T17:23:37;6.10;99.90
4207;DHT22;2117;47.972;7.830;2023-02-01T17:26:03;6.10;99.90
4207;DHT22;2117;47.972;7.830;2023-02-01T17:28:29;6.10;99.90
4207;DHT22;2117;47.972;7.830;2023-02-01T17:30:55;6.10;99.90
4207;DHT22;2117;47.972;7.830;2023-02-01T17:33:39;6.10;99.90
4207;DHT22;2117;47.972;7.830;2023-02-01T17:36:05;6.10;99.90
4207;DHT22;2117;47.972;7.830;2023-02-01T17:38:31;6.10;99.90
4207;DHT22;2117;47.972;7.830;2023-02-01T17:40:57;6.20;99.90
4207;DHT22;2117;47.972;7.830;2023-02-01T17:43:24;6.10;99.90
4207;DHT22;2117;47.972;7.830;2023-02-01T17:46:19;6.10;99.90
4207;DHT22;2117;47.972;7.830;2023-02-01T17:48:54;6.10;99.90
4207;DHT22;2117;47.972;7.830;2023-02-01T17:51:22;6.10;99.90
4207;DHT22;2117;47.972;7.830;2023-02-01T17:53:48;6.10;99.90
4207;DHT22;2117;47.972;7.830;2023-02-01T17:56:16;6.10;99.90
4207;DHT22;2117;47.972;7.830;2023-02-01T17:58:42;6.10;99.90
4207;DHT22;2117;47.972;7.830;2023-02-01T18:01:13;6.00;99.90
4207;DHT22;2117;47.972;7.830;2023-02-01T18:03:39;6.00;99.90
4207;DHT22;2117;47.972;7.830;2023-02-01T18:06:09;6.00;99.90
4207;DHT22;2117;47.972;7.830;2023-02-01T18:08:35;6.20;99.90
4207;DHT22;2117;47.972;7.830;2023-02-01T18:11:01;6.60;99.90
4207;DHT22;2117;47.972;7.830;2023-02-01T18:13:28;7.10;99.90
4207;DHT22;2117;47.972;7.830;2023-02-01T18:15:55;6.90;99.90
4207;DHT22;2117;47.972;7.830;2023-02-01T18:18:23;6.70;99.90
4207;DHT22;2117;47.972;7.830;2023-02-01T18:20:49;6.50;99.90
4207;DHT22;2117;47.972;7.830;2023-02-01T18:23:21;6.30;99.90
4207;DHT22;2117;47.972;7.830;2023-02-01T18:25:48;6.20;99.90
4207;DHT22;2117;47.972;7.830;2023-02-01T18:28:14;6.20;99.90
4207;DHT22;2117;47.972;7.830;2023-02-01T18:30:41;6.20;99.90
4207;DHT22;2117;47.972;7.830;2023-02-01T18:33:12;6.10;99.90
4207;DHT22;2117;47.972;7.830;2023-02-01T18:35:38;6.20;99.90
4207;DHT22;2117;47.972;7.830;2023-02-01T18:38:04;6.20;99.90
4207;DHT22;2117;47.972;7.830;2023-02-01T18:40:40;6.10;99.90
4207;DHT22;2117;47.972;7.830;2023-02-01T18:43:08;6.10;99.90
4207;DHT22;2117;47.972;7.830;2023-02-01T18:48:02;6.00;99.90
4207;DHT22;2117;47.972;7.830;2023-02-01T18:50:29;6.00;99.90